Time;durP1;ratioP1;P1;durP2;ratioP2;P2;SDS_P1;SDS_P2;PMS_P1;PMS_P2;Temp;Humidity;BMP_temperature;BMP_pressure;BME280_temperature;BME280_humidity;BME280_pressure;Samples;Min_cycle;Max_cycle;Signal;HPM_P1;HPM_P2
2021/05/01 00:01:59;;;;;;;;;;;;;;;20.69;41.71;99563.56;5254725;27;33219;-90
2021/05/01 00:04:27;;;;;;;;;;;;;;;20.53;42.38;99557.72;5254959;27;32983;-90
2021/05/01 00:06:54;;;;;;;;;;;;;;;19.89;44.03;99564.19;5254375;27;32665;-91
2021/05/01 00:09:21;;;;;;;;;;;;;;;21.40;40.40;99564.34;5254690;27;33215;-91
2021/05/01 00:11:48;;;;;;;;;;;;;;;21.71;39.35;99556.63;5254930;27;33259;-90
2021/05/01 00:14:25;;;;;;;;;;;;;;;20.75;41.27;99549.00;5255616;27;32578;-90
2021/05/01 00:16:53;;;;;;;;;;;;;;;21.56;39.37;99542.78;5273081;27;32799;-88
2021/05/01 00:19:20;;;;;;;;;;;;;;;21.60;39.16;99553.00;5237101;27;32968;-89
2021/05/01 00:21:49;;;;;;;;;;;;;;;21.84;38.62;99549.34;5255032;27;32992;-90
2021/05/01 00:24:16;;;;;;;;;;;;;;;21.81;38.13;99545.16;5254410;27;32749;-90
2021/05/01 00:26:43;;;;;;;;;;;;;;;21.92;37.88;99541.63;5254506;27;32020;-89
2021/05/01 00:29:12;;;;;;;;;;;;;;;21.62;38.50;99543.16;5255050;27;32975;-90
2021/05/01 00:31:39;;;;;;;;;;;;;;;22.01;38.00;99543.50;5254669;27;33507;-89
2021/05/01 00:34:13;;;;;;;;;;;;;;;22.02;37.81;99545.22;5257334;27;33648;-89
2021/05/01 00:36:40;;;;;;;;;;;;;;;21.39;39.32;99544.94;5274750;27;34109;-90
2021/05/01 00:39:07;;;;;;;;;;;;;;;21.23;39.92;99549.78;5275286;27;33541;-90
2021/05/01 00:41:34;;;;;;;;;;;;;;;20.25;42.35;99546.56;5274557;27;34134;-90
2021/05/01 00:44:08;;;;;;;;;;;;;;;20.76;41.31;99549.84;5256187;27;33043;-90
2021/05/01 00:46:45;;;;;;;;;;;;;;;21.68;39.18;99552.41;5323686;26;33531;-89
2021/05/01 00:49:13;;;;;;;;;;;;;;;21.74;38.26;99548.41;5237137;27;33909;-89
2021/05/01 00:51:41;;;;;;;;;;;;;;;21.43;38.50;99545.53;5254753;27;33086;-90
2021/05/01 00:54:08;;;;;;;;;;;;;;;21.48;37.95;99540.72;5254733;27;33858;-89
2021/05/01 00:56:35;;;;;;;;;;;;;;;21.64;37.30;99540.38;5272688;27;32857;-89
2021/05/01 00:59:02;;;;;;;;;;;;;;;20.93;38.83;99538.81;5272714;27;34050;-91
2021/05/01 01:01:30;;;;;;;;;;;;;;;21.21;38.27;99534.00;5272819;27;34292;-88
2021/05/01 01:03:58;;;;;;;;;;;;;;;20.54;40.19;99535.56;5272490;27;33573;-89
2021/05/01 01:06:25;;;;;;;;;;;;;;;21.36;38.33;99543.37;5254706;27;32876;-92
2021/05/01 01:08:52;;;;;;;;;;;;;;;21.15;38.82;99535.34;5254544;27;33894;-90
2021/05/01 01:11:19;;;;;;;;;;;;;;;20.84;40.29;99531.56;5254626;27;33130;-89
2021/05/01 01:14:05;;;;;;;;;;;;;;;21.27;39.32;99544.13;5257290;27;32876;-90
2021/05/01 01:16:33;;;;;;;;;;;;;;;21.55;38.63;99547.25;5272708;27;33283;-92
2021/05/01 01:19:00;;;;;;;;;;;;;;;20.67;41.25;99552.22;5254462;27;32936;-90
2021/05/01 01:21:27;;;;;;;;;;;;;;;21.02;40.24;99558.44;5254679;27;33248;-91
2021/05/01 01:23:54;;;;;;;;;;;;;;;21.14;39.98;99562.78;5254607;27;33712;-90
2021/05/01 01:26:22;;;;;;;;;;;;;;;21.09;40.34;99553.50;5254712;27;32259;-90
2021/05/01 01:28:49;;;;;;;;;;;;;;;21.32;39.73;99557.81;5236985;27;32902;-91
2021/05/01 01:31:16;;;;;;;;;;;;;;;21.06;39.88;99553.72;5255242;27;33751;-90
2021/05/01 01:33:43;;;;;;;;;;;;;;;21.54;39.04;99550.00;5272311;27;33943;-90
2021/05/01 01:36:10;;;;;;;;;;;;;;;21.35;39.24;99540.84;5272232;27;33206;-89
2021/05/01 01:38:37;;;;;;;;;;;;;;;21.62;38.67;99544.94;5272247;27;34085;-91
2021/05/01 01:41:04;;;;;;;;;;;;;;;21.51;39.15;99551.06;5254304;27;32798;-90
2021/05/01 01:43:31;;;;;;;;;;;;;;;21.55;39.61;99549.06;5254205;27;32772;-90
2021/05/01 01:46:00;;;;;;;;;;;;;;;21.46;39.54;99542.63;5254526;27;32032;-90
2021/05/01 01:48:27;;;;;;;;;;;;;;;21.18;40.62;99543.03;5255317;27;32562;-90
2021/05/01 01:50:54;;;;;;;;;;;;;;;20.81;41.69;99551.19;5255746;27;33015;-90
2021/05/01 01:53:25;;;;;;;;;;;;;;;21.51;39.84;99540.47;5273921;27;32964;-90
2021/05/01 01:55:52;;;;;;;;;;;;;;;21.93;39.04;99542.47;5255944;27;32078;-91
2021/05/01 01:58:26;;;;;;;;;;;;;;;21.88;39.39;99542.00;5239220;27;32748;-90
2021/05/01 02:00:54;;;;;;;;;;;;;;;21.83;39.51;99547.66;5255313;27;32958;-90
2021/05/01 02:03:25;;;;;;;;;;;;;;;20.87;41.63;99547.22;5255295;27;32712;-89
2021/05/01 02:05:52;;;;;;;;;;;;;;;20.82;41.91;99542.28;5254333;27;32246;-89
2021/05/01 02:08:20;;;;;;;;;;;;;;;20.25;43.46;99545.69;5254529;27;32891;-90
2021/05/01 02:10:47;;;;;;;;;;;;;;;19.08;46.63;99549.59;5272965;27;34128;-90
2021/05/01 02:13:18;;;;;;;;;;;;;;;19.02;46.93;99533.22;5260915;27;32774;-90
2021/05/01 02:15:47;;;;;;;;;;;;;;;20.33;43.81;99535.41;5265598;27;32037;-90
2021/05/01 02:18:13;;;;;;;;;;;;;;;20.52;42.99;99537.50;5265360;27;33007;-90
2021/05/01 02:20:40;;;;;;;;;;;;;;;21.12;40.49;99532.06;5281674;27;34577;-90
2021/05/01 02:23:11;;;;;;;;;;;;;;;21.24;40.29;99538.22;5266459;27;33012;-89
2021/05/01 02:25:42;;;;;;;;;;;;;;;21.02;41.18;99542.56;5266699;27;32411;-90
2021/05/01 02:28:09;;;;;;;;;;;;;;;20.91;41.51;99538.06;5245175;27;32920;-90
2021/05/01 02:30:36;;;;;;;;;;;;;;;20.81;42.05;99545.06;5254502;27;33047;-91
2021/05/01 02:33:03;;;;;;;;;;;;;;;20.93;41.92;99546.75;5254368;27;33740;-91
2021/05/01 02:35:34;;;;;;;;;;;;;;;21.52;40.76;99550.97;5254002;27;32063;-90
2021/05/01 02:38:01;;;;;;;;;;;;;;;21.63;40.44;99547.50;5236549;27;32816;-90
2021/05/01 02:40:31;;;;;;;;;;;;;;;21.47;40.88;99541.69;5254247;27;33101;-90
2021/05/01 02:43:06;;;;;;;;;;;;;;;20.69;42.69;99547.66;5254597;27;32869;-90
2021/05/01 02:45:34;;;;;;;;;;;;;;;20.60;43.24;99535.09;5236710;27;32221;-90
2021/05/01 02:48:02;;;;;;;;;;;;;;;19.73;45.13;99543.25;5254049;27;32933;-90
2021/05/01 02:50:29;;;;;;;;;;;;;;;19.56;46.07;99533.03;5272262;27;34144;-90
2021/05/01 02:52:56;;;;;;;;;;;;;;;20.11;44.82;99515.00;5254657;27;33998;-90
2021/05/01 02:55:23;;;;;;;;;;;;;;;20.15;44.79;99516.44;5254263;27;33180;-89
2021/05/01 02:57:50;;;;;;;;;;;;;;;20.06;44.68;99509.19;5254064;27;33005;-91
2021/05/01 03:00:18;;;;;;;;;;;;;;;21.15;42.15;99506.19;5271662;27;34890;-90
2021/05/01 03:02:52;;;;;;;;;;;;;;;20.90;42.64;99507.28;5271834;27;33546;-89
2021/05/01 03:05:20;;;;;;;;;;;;;;;21.19;42.09;99517.38;5254166;27;33245;-89
2021/05/01 03:07:46;;;;;;;;;;;;;;;21.23;41.96;99516.16;5253881;27;34036;-91
2021/05/01 03:10:15;;;;;;;;;;;;;;;21.28;41.68;99511.34;5272428;27;34955;-90
2021/05/01 03:12:42;;;;;;;;;;;;;;;20.91;42.24;99516.06;5255153;27;34006;-90
2021/05/01 03:15:09;;;;;;;;;;;;;;;20.99;41.89;99518.94;5255093;27;32069;-90
2021/05/01 03:17:37;;;;;;;;;;;;;;;21.40;40.78;99514.00;5255271;27;33734;-90
2021/05/01 03:20:06;;;;;;;;;;;;;;;20.74;42.46;99525.28;5273041;27;33558;-91
2021/05/01 03:22:33;;;;;;;;;;;;;;;20.92;42.09;99521.22;5273048;27;33588;-91
2021/05/01 03:25:01;;;;;;;;;;;;;;;21.38;41.27;99522.06;5255175;27;33136;-91
2021/05/01 03:27:29;;;;;;;;;;;;;;;21.20;41.53;99524.38;5255265;27;33010;-90
2021/05/01 03:29:56;;;;;;;;;;;;;;;21.43;40.96;99521.69;5272777;27;33377;-90
2021/05/01 03:32:24;;;;;;;;;;;;;;;20.68;42.63;99519.47;5254728;27;32810;-90
2021/05/01 03:34:51;;;;;;;;;;;;;;;21.87;40.01;99519.94;5255061;27;32908;-90
2021/05/01 03:37:18;;;;;;;;;;;;;;;21.33;41.13;99513.66;5254985;27;33966;-90
2021/05/01 03:39:45;;;;;;;;;;;;;;;21.53;40.86;99517.34;5255194;27;33274;-88
2021/05/01 03:42:12;;;;;;;;;;;;;;;22.03;39.94;99508.94;5254877;27;32788;-90
2021/05/01 03:44:39;;;;;;;;;;;;;;;21.65;40.62;99511.06;5272804;27;34014;-91
2021/05/01 03:47:07;;;;;;;;;;;;;;;21.43;40.89;99516.41;5255052;27;32982;-89
2021/05/01 03:49:35;;;;;;;;;;;;;;;21.58;40.46;99531.09;5255154;27;33928;-90
2021/05/01 03:52:02;;;;;;;;;;;;;;;21.22;41.17;99533.03;5254671;27;32965;-90
2021/05/01 03:54:30;;;;;;;;;;;;;;;21.74;40.13;99528.06;5254875;27;33653;-91
2021/05/01 03:56:58;;;;;;;;;;;;;;;21.24;41.33;99522.31;5255166;27;32791;-90
2021/05/01 03:59:25;;;;;;;;;;;;;;;21.52;40.79;99526.25;5255207;27;32919;-90
2021/05/01 04:01:52;;;;;;;;;;;;;;;21.92;39.93;99532.81;5237322;27;33435;-89
2021/05/01 04:04:20;;;;;;;;;;;;;;;22.33;39.09;99533.88;5254864;27;32126;-90
2021/05/01 04:06:47;;;;;;;;;;;;;;;22.06;39.56;99539.62;5254987;27;32986;-90
2021/05/01 04:09:14;;;;;;;;;;;;;;;22.02;39.81;99547.84;5255128;27;33204;-90
2021/05/01 04:11:42;;;;;;;;;;;;;;;22.29;39.22;99551.84;5259722;27;32882;-91
2021/05/01 04:14:09;;;;;;;;;;;;;;;22.42;38.86;99546.41;5256820;27;32387;-90
2021/05/01 04:16:36;;;;;;;;;;;;;;;21.89;39.91;99554.31;5279608;27;33717;-90
2021/05/01 04:19:04;;;;;;;;;;;;;;;21.32;41.28;99552.53;5245556;27;33069;-90
2021/05/01 04:21:31;;;;;;;;;;;;;;;21.17;41.69;99549.28;5264257;27;33153;-89
2021/05/01 04:23:58;;;;;;;;;;;;;;;21.98;39.97;99550.91;5255238;27;32116;-91
2021/05/01 04:26:25;;;;;;;;;;;;;;;21.56;41.05;99550.75;5273278;27;34127;-91
2021/05/01 04:28:52;;;;;;;;;;;;;;;21.51;41.26;99551.94;5255095;27;32902;-90
2021/05/01 04:31:19;;;;;;;;;;;;;;;21.81;40.64;99552.28;5273095;27;33947;-92
2021/05/01 04:33:47;;;;;;;;;;;;;;;21.98;40.42;99550.91;5255507;27;32535;-89
2021/05/01 04:36:14;;;;;;;;;;;;;;;21.80;40.83;99551.41;5273591;27;34196;-91
2021/05/01 04:38:41;;;;;;;;;;;;;;;22.35;39.63;99556.69;5273927;27;34421;-90
2021/05/01 04:41:08;;;;;;;;;;;;;;;22.31;39.68;99557.03;5273977;27;33788;-91
2021/05/01 04:43:35;;;;;;;;;;;;;;;22.08;40.31;99564.25;5256357;27;31967;-91
2021/05/01 04:46:02;;;;;;;;;;;;;;;21.41;41.99;99550.97;5256755;27;32867;-90
2021/05/01 04:48:31;;;;;;;;;;;;;;;21.96;40.66;99560.78;5256955;27;33188;-90
2021/05/01 04:50:58;;;;;;;;;;;;;;;22.17;40.12;99569.63;5276851;27;33921;-90
2021/05/01 04:53:25;;;;;;;;;;;;;;;22.39;39.58;99575.88;5256982;27;32777;-91
2021/05/01 04:55:53;;;;;;;;;;;;;;;22.45;39.65;99571.84;5272769;27;34130;-90
2021/05/01 04:58:23;;;;;;;;;;;;;;;22.78;38.95;99564.69;5254953;27;33006;-89
2021/05/01 05:00:50;;;;;;;;;;;;;;;22.91;38.64;99567.97;5272867;27;33664;-90
2021/05/01 05:03:17;;;;;;;;;;;;;;;22.61;39.28;99577.53;5236878;27;32011;-91
2021/05/01 05:05:44;;;;;;;;;;;;;;;22.91;38.55;99575.06;5254727;27;32755;-90
2021/05/01 05:08:11;;;;;;;;;;;;;;;22.27;40.11;99576.81;5272317;27;33740;-90
2021/05/01 05:10:39;;;;;;;;;;;;;;;22.64;39.35;99581.75;5272633;27;34691;-90
2021/05/01 05:13:06;;;;;;;;;;;;;;;22.51;39.79;99577.47;5255048;27;33205;-90
2021/05/01 05:15:33;;;;;;;;;;;;;;;22.77;39.13;99582.41;5254657;27;32961;-90
2021/05/01 05:18:00;;;;;;;;;;;;;;;23.46;37.76;99582.78;5254802;27;32864;-90
2021/05/01 05:20:27;;;;;;;;;;;;;;;23.45;37.91;99587.28;5272678;27;34699;-90
2021/05/01 05:22:54;;;;;;;;;;;;;;;23.59;37.76;99593.19;5254859;27;33438;-90
2021/05/01 05:25:22;;;;;;;;;;;;;;;23.78;37.52;99598.56;5272416;27;34098;-89
2021/05/01 05:27:49;;;;;;;;;;;;;;;23.92;37.21;99594.72;5254520;27;34014;-89
2021/05/01 05:30:16;;;;;;;;;;;;;;;23.66;37.93;99591.69;5254661;27;34234;-90
2021/05/01 05:32:43;;;;;;;;;;;;;;;23.82;37.63;99588.50;5254278;27;33021;-90
2021/05/01 05:35:10;;;;;;;;;;;;;;;24.39;36.51;99585.25;5272914;27;34236;-90
2021/05/01 05:37:37;;;;;;;;;;;;;;;24.20;36.95;99586.91;5272788;27;34354;-90
2021/05/01 05:40:06;;;;;;;;;;;;;;;23.57;38.22;99585.34;5254946;27;32919;-90
2021/05/01 05:42:34;;;;;;;;;;;;;;;23.99;37.59;99584.38;5254912;27;34082;-90
2021/05/01 05:45:01;;;;;;;;;;;;;;;24.19;37.31;99585.22;5254748;27;34090;-90
2021/05/01 05:47:29;;;;;;;;;;;;;;;24.09;37.72;99587.88;5254788;27;34945;-89
2021/05/01 05:49:56;;;;;;;;;;;;;;;23.97;37.92;99592.50;5272590;27;35055;-91
2021/05/01 05:52:23;;;;;;;;;;;;;;;23.65;38.76;99588.19;5272388;27;33687;-90
2021/05/01 05:54:50;;;;;;;;;;;;;;;23.26;39.78;99596.00;5272525;27;33949;-90
2021/05/01 05:57:18;;;;;;;;;;;;;;;23.68;38.83;99595.88;5254594;27;33875;-91
2021/05/01 05:59:44;;;;;;;;;;;;;;;24.27;37.58;99593.34;5254437;27;32977;-90
2021/05/01 06:02:15;;;;;;;;;;;;;;;24.66;36.76;99598.72;5272692;27;33207;-90
2021/05/01 06:05:09;;;;;;;;;;;;;;;25.07;35.97;99597.63;5236996;27;32977;-90
2021/05/01 06:07:37;;;;;;;;;;;;;;;25.08;35.94;99610.00;5255088;27;33037;-89
2021/05/01 06:10:05;;;;;;;;;;;;;;;25.04;36.30;99608.59;5254486;27;33556;-90
2021/05/01 06:12:33;;;;;;;;;;;;;;;25.26;36.00;99608.25;5236679;27;32054;-91
2021/05/01 06:15:01;;;;;;;;;;;;;;;25.17;36.42;99601.12;5328898;26;33202;-90
2021/05/01 06:17:28;;;;;;;;;;;;;;;25.23;36.32;99589.84;5236848;27;33806;-90
2021/05/01 06:19:56;;;;;;;;;;;;;;;25.46;35.86;99584.19;5272532;27;34766;-91
2021/05/01 06:22:24;;;;;;;;;;;;;;;25.37;35.95;99590.41;5254640;27;33160;-90
2021/05/01 06:24:54;;;;;;;;;;;;;;;25.79;35.32;99596.09;5240973;27;33453;-90
2021/05/01 06:27:21;;;;;;;;;;;;;;;25.48;36.21;99583.06;5242811;27;33235;-90
2021/05/01 06:29:49;;;;;;;;;;;;;;;25.81;35.96;99588.78;5260269;27;32712;-90
2021/05/01 06:32:17;;;;;;;;;;;;;;;25.78;35.46;99597.09;5277218;27;33240;-89
2021/05/01 06:34:48;;;;;;;;;;;;;;;25.93;35.33;99601.94;5256978;27;33509;-90
2021/05/01 06:37:16;;;;;;;;;;;;;;;26.27;34.59;99599.47;5237161;27;33541;-91
2021/05/01 06:39:46;;;;;;;;;;;;;;;26.51;33.75;99589.97;5272977;27;33495;-90
2021/05/01 06:42:17;;;;;;;;;;;;;;;26.69;33.28;99599.81;5272808;27;33927;-91
2021/05/01 06:44:51;;;;;;;;;;;;;;;25.83;33.37;99602.81;5254776;27;34505;-90
2021/05/01 06:47:23;;;;;;;;;;;;;;;25.38;33.65;99598.28;5255202;27;33039;-91
2021/05/01 06:50:02;;;;;;;;;;;;;;;25.75;33.25;99600.03;5237666;27;32715;-91
2021/05/01 06:52:30;;;;;;;;;;;;;;;25.77;32.61;99607.91;5273694;27;33093;-90
2021/05/01 06:54:59;;;;;;;;;;;;;;;25.91;32.31;99610.06;5255138;27;33309;-90
2021/05/01 06:57:26;;;;;;;;;;;;;;;25.97;32.17;99605.97;5237597;27;33151;-90
2021/05/01 06:59:54;;;;;;;;;;;;;;;26.36;31.56;99600.38;5255151;27;33408;-90
2021/05/01 07:02:27;;;;;;;;;;;;;;;26.36;31.52;99595.03;5237890;27;32242;-90
2021/05/01 07:04:55;;;;;;;;;;;;;;;25.19;33.56;99591.13;5255639;27;33715;-90
2021/05/01 07:07:23;;;;;;;;;;;;;;;25.89;32.52;99585.38;5237615;27;31382;-91
2021/05/01 07:10:02;;;;;;;;;;;;;;;26.19;31.80;99590.53;5273277;27;34127;-89
2021/05/01 07:12:29;;;;;;;;;;;;;;;26.24;31.69;99581.06;5237621;27;32153;-89
2021/05/01 07:14:57;;;;;;;;;;;;;;;26.37;31.42;99570.00;5255193;27;32664;-89
2021/05/01 07:17:24;;;;;;;;;;;;;;;26.63;30.92;99580.75;5273378;27;34783;-89
2021/05/01 07:19:54;;;;;;;;;;;;;;;26.91;30.32;99574.44;5255588;27;33721;-90
2021/05/01 07:22:28;;;;;;;;;;;;;;;26.93;30.02;99583.97;5256251;27;33146;-89
2021/05/01 07:24:55;;;;;;;;;;;;;;;26.33;30.97;99590.81;5255147;27;34062;-90
2021/05/01 07:27:32;;;;;;;;;;;;;;;26.09;31.67;99593.28;5272843;27;33759;-89
2021/05/01 07:30:19;;;;;;;;;;;;;;;25.58;32.65;99593.69;5257922;27;32910;-89
2021/05/01 07:33:03;;;;;;;;;;;;;;;26.20;31.61;99602.91;5240753;27;32403;-89
2021/05/01 07:35:31;;;;;;;;;;;;;;;26.82;30.74;99602.94;5237259;27;32976;-91
2021/05/01 07:37:58;;;;;;;;;;;;;;;27.08;30.49;99610.94;5254997;27;33060;-89
2021/05/01 07:40:28;;;;;;;;;;;;;;;27.12;30.27;99608.81;5254821;27;33105;-90
2021/05/01 07:43:01;;;;;;;;;;;;;;;26.12;31.96;99604.47;5273087;27;33216;-89
2021/05/01 07:45:28;;;;;;;;;;;;;;;26.39;31.58;99601.88;5272739;27;34033;-88
2021/05/01 07:47:56;;;;;;;;;;;;;;;26.88;30.68;99601.47;5254692;27;33231;-89
2021/05/01 07:50:23;;;;;;;;;;;;;;;26.44;31.52;99600.44;5237216;27;32850;-89
2021/05/01 07:52:51;;;;;;;;;;;;;;;25.90;32.65;99597.72;5237094;27;32096;-89
2021/05/01 07:55:18;;;;;;;;;;;;;;;27.13;30.49;99589.94;5273094;27;34808;-89
2021/05/01 07:57:47;;;;;;;;;;;;;;;27.69;29.58;99594.06;5255181;27;33287;-89
2021/05/01 08:00:15;;;;;;;;;;;;;;;27.87;29.05;99591.28;5236622;27;34981;-89
2021/05/01 08:02:43;;;;;;;;;;;;;;;28.25;28.50;99595.22;5237071;27;32915;-90
2021/05/01 08:05:13;;;;;;;;;;;;;;;27.70;29.38;99598.44;5255065;27;34317;-89
2021/05/01 08:07:40;;;;;;;;;;;;;;;28.14;28.66;99596.37;5254747;27;33211;-89
2021/05/01 08:10:08;;;;;;;;;;;;;;;28.13;28.70;99597.41;5255024;27;34622;-88
2021/05/01 08:12:47;;;;;;;;;;;;;;;27.94;28.75;99603.84;5241078;27;31793;-90
2021/05/01 08:15:15;;;;;;;;;;;;;;;28.40;28.10;99610.63;5254755;27;33053;-89
2021/05/01 08:17:43;;;;;;;;;;;;;;;28.30;28.01;99602.78;5273005;27;33635;-89
2021/05/01 08:20:11;;;;;;;;;;;;;;;27.33;29.10;99611.09;5254899;27;33913;-90
2021/05/01 08:22:39;;;;;;;;;;;;;;;27.82;28.61;99605.97;5236932;27;32014;-89
2021/05/01 08:25:06;;;;;;;;;;;;;;;28.57;27.31;99609.63;5237175;27;32979;-89
2021/05/01 08:27:34;;;;;;;;;;;;;;;29.05;26.79;99599.09;5254807;27;33969;-89
2021/05/01 08:30:01;;;;;;;;;;;;;;;29.30;25.83;99609.75;5254624;27;33821;-89
2021/05/01 08:32:28;;;;;;;;;;;;;;;28.85;26.18;99601.28;5254751;27;32037;-89
2021/05/01 08:34:55;;;;;;;;;;;;;;;29.50;25.48;99610.19;5272925;27;33612;-88
2021/05/01 08:37:23;;;;;;;;;;;;;;;29.07;26.07;99612.31;5272797;27;33385;-88
2021/05/01 08:39:49;;;;;;;;;;;;;;;28.47;26.99;99614.34;5277939;27;33909;-89
2021/05/01 08:42:17;;;;;;;;;;;;;;;29.08;26.23;99606.78;5258655;27;31882;-90
2021/05/01 08:44:45;;;;;;;;;;;;;;;29.16;26.11;99608.62;5258801;27;34393;-89
2021/05/01 08:47:12;;;;;;;;;;;;;;;29.81;25.12;99609.41;5258293;27;33315;-90
2021/05/01 08:49:40;;;;;;;;;;;;;;;28.98;26.22;99595.41;5259296;27;32742;-89
2021/05/01 08:52:09;;;;;;;;;;;;;;;29.38;25.43;99601.69;5256397;27;32027;-90
2021/05/01 08:54:36;;;;;;;;;;;;;;;28.88;26.24;99616.19;5273492;27;33615;-89
2021/05/01 08:57:04;;;;;;;;;;;;;;;29.85;25.04;99616.09;5255897;27;33026;-87
2021/05/01 08:59:31;;;;;;;;;;;;;;;29.13;26.06;99620.50;5256075;27;33624;-88
2021/05/01 09:01:58;;;;;;;;;;;;;;;29.78;25.04;99613.28;5273514;27;32923;-89
2021/05/01 09:04:25;;;;;;;;;;;;;;;29.83;25.05;99604.69;5274465;27;34184;-90
2021/05/01 09:06:54;;;;;;;;;;;;;;;30.40;24.30;99597.31;5256675;27;35109;-90
2021/05/01 09:09:21;;;;;;;;;;;;;;;30.04;24.54;99603.25;5256465;27;33237;-89
2021/05/01 09:11:48;;;;;;;;;;;;;;;29.22;25.78;99601.72;5273181;27;33509;-89
2021/05/01 09:14:18;;;;;;;;;;;;;;;30.69;23.70;99603.78;5254769;27;33062;-89
2021/05/01 09:16:57;;;;;;;;;;;;;;;31.38;22.84;99606.31;5254689;27;32960;-89
2021/05/01 09:19:32;;;;;;;;;;;;;;;30.46;23.82;99588.53;5254457;27;32956;-90
2021/05/01 09:22:03;;;;;;;;;;;;;;;30.97;23.25;99594.09;5236657;27;32084;-90
2021/05/01 09:24:30;;;;;;;;;;;;;;;31.68;22.19;99581.25;5272777;27;34130;-89
2021/05/01 09:27:00;;;;;;;;;;;;;;;31.01;22.99;99591.91;5272280;27;35008;-89
2021/05/01 09:29:28;;;;;;;;;;;;;;;31.74;22.28;99594.78;5236630;27;34672;-90
2021/05/01 09:31:55;;;;;;;;;;;;;;;32.17;21.84;99596.72;5236907;27;33019;-89
2021/05/01 09:34:34;;;;;;;;;;;;;;;31.77;22.21;99590.88;5254190;27;34938;-89
2021/05/01 09:37:02;;;;;;;;;;;;;;;31.73;22.37;99595.78;5254574;27;33870;-89
2021/05/01 09:39:29;;;;;;;;;;;;;;;31.92;22.14;99588.94;5254507;27;34242;-89
2021/05/01 09:41:56;;;;;;;;;;;;;;;32.00;22.06;99573.72;5272312;27;33606;-89
2021/05/01 09:44:23;;;;;;;;;;;;;;;31.17;22.80;99582.84;5254645;27;34337;-90
2021/05/01 09:46:53;;;;;;;;;;;;;;;30.25;24.24;99573.87;5254325;27;32640;-89
2021/05/01 09:49:22;;;;;;;;;;;;;;;31.05;23.68;99585.16;5237002;26;32581;-89
2021/05/01 09:51:58;;;;;;;;;;;;;;;29.26;26.20;99582.44;5236790;27;31821;-89
2021/05/01 09:54:25;;;;;;;;;;;;;;;28.69;27.19;99574.50;5254217;27;32915;-89
2021/05/01 09:56:54;;;;;;;;;;;;;;;29.09;26.82;99578.09;5254346;27;33242;-89
2021/05/01 09:59:21;;;;;;;;;;;;;;;29.79;25.81;99573.81;5272525;27;33522;-89
2021/05/01 10:01:54;;;;;;;;;;;;;;;30.28;24.96;99575.38;5254416;27;32017;-90
2021/05/01 10:04:22;;;;;;;;;;;;;;;29.65;25.63;99570.88;5236942;27;34211;-89
2021/05/01 10:07:00;;;;;;;;;;;;;;;30.85;24.08;99560.63;5255888;27;34050;-89
2021/05/01 10:09:38;;;;;;;;;;;;;;;31.43;23.39;99552.75;5272626;27;34021;-89
2021/05/01 10:12:15;;;;;;;;;;;;;;;30.46;24.93;99558.97;5272049;27;32916;-90
2021/05/01 10:14:49;;;;;;;;;;;;;;;28.76;27.29;99544.16;5236950;27;33969;-90
2021/05/01 10:17:22;;;;;;;;;;;;;;;29.04;26.83;99535.72;5328538;26;33207;-88
2021/05/01 10:19:58;;;;;;;;;;;;;;;29.36;26.97;99539.31;5271938;27;32884;-90
2021/05/01 10:22:42;;;;;;;;;;;;;;;27.80;29.34;99534.88;5272203;27;33150;-89
2021/05/01 10:25:11;;;;;;;;;;;;;;;28.85;27.89;99525.38;5254705;27;34600;-89
2021/05/01 10:27:41;;;;;;;;;;;;;;;29.62;26.84;99522.94;5236413;27;34292;-90
2021/05/01 10:33:03;;;;;;;;;;;;;;;28.81;28.19;99531.09;5256439;27;32093;-90
2021/05/01 10:35:31;;;;;;;;;;;;;;;29.24;27.30;99522.75;5236887;26;32843;-89
2021/05/01 10:37:58;;;;;;;;;;;;;;;28.11;28.34;99515.56;5236555;27;33066;-89
2021/05/01 10:40:26;;;;;;;;;;;;;;;26.92;29.94;99523.47;5254121;27;33016;-89
2021/05/01 10:43:08;;;;;;;;;;;;;;;28.75;27.38;99523.72;5238636;27;32105;-89
2021/05/01 10:45:35;;;;;;;;;;;;;;;27.88;29.08;99518.00;5236651;27;32766;-90
2021/05/01 10:48:09;;;;;;;;;;;;;;;29.06;27.51;99509.56;5254061;27;33899;-90
2021/05/01 10:50:36;;;;;;;;;;;;;;;29.37;26.56;99508.81;5254151;27;32880;-89
2021/05/01 10:53:04;;;;;;;;;;;;;;;30.28;25.66;99502.84;5254118;27;33187;-89
2021/05/01 10:55:44;;;;;;;;;;;;;;;28.29;27.99;99507.34;5236358;27;33973;-90
2021/05/01 10:58:11;;;;;;;;;;;;;;;28.52;27.51;99495.94;5272067;27;34042;-89
2021/05/01 11:00:43;;;;;;;;;;;;;;;27.38;29.64;99498.34;5254030;27;32407;-89
2021/05/01 11:03:10;;;;;;;;;;;;;;;28.04;28.48;99490.44;5236310;27;32178;-89
2021/05/01 11:05:39;;;;;;;;;;;;;;;28.13;27.53;99489.44;5254614;27;33075;-89
2021/05/01 11:08:22;;;;;;;;;;;;;;;27.54;28.54;99484.16;5259752;27;34277;-89
2021/05/01 11:10:51;;;;;;;;;;;;;;;28.97;26.78;99487.31;5241972;27;32881;-89
2021/05/01 11:13:25;;;;;;;;;;;;;;;30.02;25.90;99493.28;5239733;27;31597;-89
2021/05/01 11:15:57;;;;;;;;;;;;;;;28.80;28.03;99497.25;5239681;27;32775;-90
2021/05/01 11:18:24;;;;;;;;;;;;;;;27.92;30.09;99495.25;5257344;27;33511;-90
2021/05/01 11:20:54;;;;;;;;;;;;;;;28.55;28.40;99493.75;5236808;27;33045;-88
2021/05/01 11:23:22;;;;;;;;;;;;;;;29.24;27.98;99495.09;5237234;27;32386;-90
2021/05/01 11:25:50;;;;;;;;;;;;;;;29.18;27.74;99483.19;5254134;27;32968;-89
2021/05/01 11:28:17;;;;;;;;;;;;;;;28.48;28.78;99485.56;5272275;27;34036;-89
2021/05/01 11:30:44;;;;;;;;;;;;;;;28.11;29.21;99478.06;5254149;27;32892;-90
2021/05/01 11:33:11;;;;;;;;;;;;;;;28.82;28.29;99481.00;5237090;27;31309;-90
2021/05/01 11:35:38;;;;;;;;;;;;;;;29.33;27.39;99472.56;5236789;27;32795;-90
2021/05/01 11:38:05;;;;;;;;;;;;;;;29.74;26.95;99463.44;5254722;27;33785;-90
2021/05/01 11:40:33;;;;;;;;;;;;;;;30.68;25.19;99470.41;5254933;27;33764;-89
2021/05/01 11:43:00;;;;;;;;;;;;;;;30.34;25.92;99464.47;5255179;27;31956;-90
2021/05/01 11:45:39;;;;;;;;;;;;;;;28.62;28.27;99470.62;5254965;27;33020;-90
2021/05/01 11:48:08;;;;;;;;;;;;;;;29.44;27.22;99463.31;5236840;27;34139;-89
2021/05/01 11:50:36;;;;;;;;;;;;;;;29.61;26.86;99461.34;5237273;27;32844;-89
2021/05/01 11:53:18;;;;;;;;;;;;;;;30.52;25.60;99468.72;5257109;27;33126;-89
2021/05/01 11:55:51;;;;;;;;;;;;;;;29.98;26.30;99460.63;5272822;27;34922;-90
2021/05/01 11:58:28;;;;;;;;;;;;;;;29.13;27.49;99464.09;5254729;27;33711;-90
2021/05/01 12:00:55;;;;;;;;;;;;;;;29.99;26.51;99448.84;5255140;27;33603;-90
2021/05/01 12:03:23;;;;;;;;;;;;;;;29.22;27.74;99459.53;5254752;27;32104;-89
2021/05/01 12:06:00;;;;;;;;;;;;;;;28.85;28.11;99450.31;5254740;27;32340;-89
2021/05/01 12:08:27;;;;;;;;;;;;;;;29.85;26.55;99443.41;5254605;27;34127;-89
2021/05/01 12:10:56;;;;;;;;;;;;;;;30.24;26.04;99439.75;5254874;27;33689;-89
2021/05/01 12:13:24;;;;;;;;;;;;;;;31.31;24.22;99435.81;5236614;27;32090;-90
2021/05/01 12:15:52;;;;;;;;;;;;;;;31.68;23.81;99425.06;5254677;27;33991;-90
2021/05/01 12:18:19;;;;;;;;;;;;;;;31.62;23.71;99424.81;5237317;27;33425;-89
2021/05/01 12:20:53;;;;;;;;;;;;;;;32.36;22.58;99408.41;5237067;27;32928;-90
2021/05/01 12:23:39;;;;;;;;;;;;;;;32.10;23.19;99412.56;5272716;27;32859;-91
2021/05/01 12:26:05;;;;;;;;;;;;;;;31.94;23.39;99414.53;5272860;27;33577;-88
2021/05/01 12:28:34;;;;;;;;;;;;;;;31.61;23.16;99400.78;5272765;27;35011;-89
2021/05/01 12:31:02;;;;;;;;;;;;;;;31.40;23.62;99404.25;5236863;27;33759;-89
2021/05/01 12:33:32;;;;;;;;;;;;;;;31.78;22.96;99404.03;5236977;27;31973;-89
2021/05/01 12:36:00;;;;;;;;;;;;;;;32.75;21.34;99401.63;5254536;26;33974;-89
2021/05/01 12:38:28;;;;;;;;;;;;;;;33.32;20.70;99388.75;5237111;27;34295;-89
2021/05/01 12:41:07;;;;;;;;;;;;;;;33.38;20.60;99387.91;5237024;27;32824;-89
2021/05/01 12:43:34;;;;;;;;;;;;;;;33.44;20.64;99379.00;5272663;27;32725;-89
2021/05/01 12:46:11;;;;;;;;;;;;;;;33.15;21.18;99393.66;5254813;27;34116;-90
2021/05/01 12:48:58;;;;;;;;;;;;;;;32.82;21.41;99388.16;5254678;27;33685;-89
2021/05/01 12:51:28;;;;;;;;;;;;;;;31.70;22.86;99382.59;5254686;27;32920;-90
2021/05/01 12:53:57;;;;;;;;;;;;;;;30.87;24.29;99372.19;5272951;27;32865;-91
2021/05/01 12:56:35;;;;;;;;;;;;;;;32.14;22.55;99368.87;5254790;27;34106;-90
2021/05/01 12:59:18;;;;;;;;;;;;;;;31.11;23.82;99363.81;5255650;27;33903;-89
2021/05/01 13:01:54;;;;;;;;;;;;;;;32.38;22.20;99365.94;5255533;27;33304;-89